Terminal Aerodrome Forecast
Issued by NWS Springfield, MO

Home | Current Version | Previous Version | Graphics & Text | Print | Product List | Glossary On
Versions: 1 2 3 4 5 6 7 8 9 10 11 12 13 14 15 16 17 18 19 20 21 22 23 24 25 26 27 28 29
000
FTUS43 KSGF 280858 AAD
TAFSGF
TAF AMD
KSGF 280858Z 2809/2906 16020G28KT 5SM RA BR VCSH SCT050 OVC080
     FM281400 18012G19KT P6SM BKN030 OVC080
     FM282200 18010G18KT P6SM OVC025
     FM290100 17010KT P6SM VCSH OVC025=

USA.gov is the U.S. government's official web portal to all federal, state and local government web resources and services.